Time;durP1;ratioP1;P1;durP2;ratioP2;P2;SDS_P1;SDS_P2;PMS_P1;PMS_P2;Temp;Humidity;BMP_temperature;BMP_pressure;BME280_temperature;BME280_humidity;BME280_pressure;Samples;Min_cycle;Max_cycle;Signal;HPM_P1;HPM_P2
2023/03/05 00:00:23;;;;;;;;;0.00;0.00;;;;;4.76;70.58;100342.59;5094782;28;8817;-60
2023/03/05 00:02:50;;;;;;;;;0.00;0.00;;;;;4.76;71.04;100337.31;5095329;28;8834;-60
2023/03/05 00:05:18;;;;;;;;;0.00;0.00;;;;;4.76;71.05;100338.16;5095409;28;8947;-59
2023/03/05 00:07:47;;;;;;;;;0.00;0.00;;;;;4.75;70.68;100332.97;5095291;28;8822;-58
2023/03/05 00:10:15;;;;;;;;;0.00;0.00;;;;;4.75;70.46;100336.47;5097048;28;8838;-59
2023/03/05 00:12:43;;;;;;;;;0.00;0.00;;;;;4.74;70.73;100326.84;5099391;28;8837;-59
2023/03/05 00:15:11;;;;;;;;;0.20;0.20;;;;;4.74;70.44;100325.97;5098245;28;8976;-59
2023/03/05 00:17:39;;;;;;;;;0.00;0.00;;;;;4.74;70.50;100323.34;5098030;28;8830;-60
2023/03/05 00:20:06;;;;;;;;;0.00;0.00;;;;;4.73;70.74;100324.28;5096951;28;8838;-59
2023/03/05 00:22:35;;;;;;;;;0.00;0.00;;;;;4.70;70.68;100317.38;5096977;28;8960;-61
2023/03/05 00:25:02;;;;;;;;;0.80;0.60;;;;;4.70;70.61;100313.88;5096917;28;8880;-58
2023/03/05 00:27:30;;;;;;;;;0.00;0.00;;;;;4.70;70.61;100311.22;5096372;28;9022;-60
2023/03/05 00:29:58;;;;;;;;;1.40;1.00;;;;;4.69;70.34;100304.25;5096400;28;8833;-59
2023/03/05 00:32:26;;;;;;;;;0.00;0.00;;;;;4.69;70.47;100307.75;5097270;28;8830;-61
2023/03/05 00:34:54;;;;;;;;;0.00;0.00;;;;;4.68;70.34;100303.41;5097893;28;8836;-59
2023/03/05 00:37:22;;;;;;;;;0.00;0.00;;;;;4.69;70.48;100305.13;5098372;28;8826;-61
2023/03/05 00:39:50;;;;;;;;;0.00;0.00;;;;;4.69;70.38;100301.63;5098356;28;8830;-59
2023/03/05 00:42:17;;;;;;;;;0.00;0.00;;;;;4.69;70.13;100301.63;5098220;28;8849;-61
2023/03/05 00:44:45;;;;;;;;;0.00;0.00;;;;;4.68;70.66;100294.63;5099230;28;8841;-58
2023/03/05 00:47:15;;;;;;;;;0.00;0.00;;;;;4.67;70.33;100293.81;5097982;28;8838;-58
2023/03/05 00:49:43;;;;;;;;;0.00;0.00;;;;;4.68;70.26;100297.28;5098320;28;9510;-58
2023/03/05 00:52:11;;;;;;;;;0.00;0.00;;;;;4.67;69.83;100298.22;5098083;28;8822;-59
2023/03/05 00:54:39;;;;;;;;;0.00;0.00;;;;;4.67;70.28;100292.94;5097985;28;8826;-58
2023/03/05 00:57:06;;;;;;;;;0.00;0.00;;;;;4.67;70.61;100288.53;5096921;28;9536;-58
2023/03/05 00:59:34;;;;;;;;;0.00;0.00;;;;;4.66;70.26;100292.09;5098158;28;8826;-58
2023/03/05 01:02:02;;;;;;;;;0.00;0.00;;;;;4.67;70.13;100292.94;5098496;28;8844;-58
2023/03/05 01:04:30;;;;;;;;;0.00;0.00;;;;;4.65;70.54;100284.25;5097708;28;8837;-59
2023/03/05 01:06:59;;;;;;;;;0.00;0.00;;;;;4.65;70.50;100278.97;5097415;28;8838;-59
2023/03/05 01:09:26;;;;;;;;;0.00;0.00;;;;;4.65;70.21;100273.72;5097897;28;9522;-59
2023/03/05 01:11:54;;;;;;;;;0.00;0.00;;;;;4.62;70.26;100268.56;5097721;28;8848;-58
2023/03/05 01:14:22;;;;;;;;;0.60;0.60;;;;;4.63;70.04;100270.31;5097819;28;8856;-59
2023/03/05 01:16:50;;;;;;;;;0.00;0.00;;;;;4.62;70.13;100263.28;5097354;28;8818;-58
2023/03/05 01:19:17;;;;;;;;;0.40;0.00;;;;;4.61;70.12;100269.50;5097520;28;8837;-59
2023/03/05 01:21:45;;;;;;;;;0.00;0.00;;;;;4.60;70.18;100267.81;5097376;28;8838;-58
2023/03/05 01:24:13;;;;;;;;;0.20;0.20;;;;;4.61;70.19;100264.22;5097880;28;8928;-58
2023/03/05 01:26:40;;;;;;;;;1.00;1.00;;;;;4.60;70.09;100262.53;5097742;28;8822;-59
2023/03/05 01:29:08;;;;;;;;;0.00;0.00;;;;;4.60;70.67;100254.63;5078131;28;8843;-58
2023/03/05 01:31:36;;;;;;;;;0.00;0.00;;;;;4.60;70.66;100254.63;5077342;28;9513;-57
2023/03/05 01:34:03;;;;;;;;;1.40;0.40;;;;;4.59;70.49;100245.00;5077201;28;8829;-61
2023/03/05 01:36:31;;;;;;;;;0.00;0.00;;;;;4.58;70.42;100245.94;5077371;28;9494;-58
2023/03/05 01:39:00;;;;;;;;;0.60;0.20;;;;;4.57;70.52;100241.59;5076807;28;8843;-58
2023/03/05 01:41:27;;;;;;;;;0.00;0.00;;;;;4.55;70.61;100251.34;5076966;28;8848;-58
2023/03/05 01:43:55;;;;;;;;;1.00;0.20;;;;;4.50;70.62;100242.84;5077376;28;8813;-60
2023/03/05 01:46:23;;;;;;;;;0.00;0.00;;;;;4.46;71.03;100238.63;5076757;28;8820;-58
2023/03/05 01:48:51;;;;;;;;;1.00;1.00;;;;;4.42;70.70;100237.09;5076996;28;8824;-59
2023/03/05 01:51:19;;;;;;;;;0.80;0.80;;;;;4.38;70.97;100241.66;5077108;28;9522;-59
2023/03/05 01:53:46;;;;;;;;;1.00;1.00;;;;;4.35;70.99;100233.06;5077078;28;9588;-59
2023/03/05 01:56:14;;;;;;;;;1.20;1.20;;;;;4.33;71.00;100240.19;5076690;28;8832;-59
2023/03/05 01:58:42;;;;;;;;;0.80;0.80;;;;;4.32;70.88;100241.09;5090110;28;8842;-59
2023/03/05 02:01:09;;;;;;;;;1.40;1.40;;;;;4.30;71.30;100241.19;5096720;28;8818;-58
2023/03/05 02:03:37;;;;;;;;;0.60;0.60;;;;;4.29;71.00;100239.50;5096597;28;8842;-59
2023/03/05 02:06:05;;;;;;;;;1.00;1.00;;;;;4.27;71.01;100229.94;5095588;28;8941;-58
2023/03/05 02:08:33;;;;;;;;;0.00;0.00;;;;;4.27;71.61;100235.22;5096183;28;8918;-58
2023/03/05 02:11:01;;;;;;;;;1.80;0.80;;;;;4.28;71.05;100226.38;5096583;28;8834;-59
2023/03/05 02:13:28;;;;;;;;;0.00;0.00;;;;;4.26;71.04;100225.63;5096417;28;8822;-59
2023/03/05 02:15:56;;;;;;;;;1.00;1.00;;;;;4.26;71.70;100223.81;5096522;28;8867;-60
2023/03/05 02:18:24;;;;;;;;;3.00;1.00;;;;;4.29;71.20;100217.53;5096069;28;8830;-58
2023/03/05 02:20:52;;;;;;;;;2.60;1.80;;;;;4.27;70.91;100217.59;5096333;28;8826;-58
2023/03/05 02:23:21;;;;;;;;;0.80;0.80;;;;;4.25;70.92;100210.72;5096606;28;8826;-59
2023/03/05 02:25:48;;;;;;;;;2.20;2.20;;;;;4.24;71.71;100209.88;5096428;28;8932;-59
2023/03/05 02:28:16;;;;;;;;;3.00;3.00;;;;;4.21;71.55;100207.41;5095873;28;8950;-59
2023/03/05 02:30:44;;;;;;;;;2.60;1.00;;;;;4.19;71.10;100203.97;5096339;28;8841;-59
2023/03/05 02:33:13;;;;;;;;;3.80;2.60;;;;;4.16;71.57;100198.84;5095812;28;8833;-58
2023/03/05 02:35:42;;;;;;;;;3.00;1.80;;;;;4.15;72.01;100188.38;5096099;28;8829;-59
2023/03/05 02:38:10;;;;;;;;;0.60;0.60;;;;;4.12;71.71;100184.13;5095629;28;8825;-59
2023/03/05 02:40:38;;;;;;;;;3.00;1.00;;;;;4.10;71.50;100182.50;5096700;28;9527;-61
2023/03/05 02:43:05;;;;;;;;;3.00;3.00;;;;;4.09;71.64;100184.28;5096778;28;8821;-60
2023/03/05 02:45:33;;;;;;;;;0.80;0.80;;;;;4.07;72.08;100178.25;5096399;28;8926;-60
2023/03/05 02:48:01;;;;;;;;;4.00;3.20;;;;;4.06;71.95;100180.94;5096078;28;8866;-61
2023/03/05 02:50:28;;;;;;;;;2.20;1.00;;;;;4.04;72.02;100178.38;5096037;28;8833;-59
2023/03/05 02:52:56;;;;;;;;;1.20;1.20;;;;;4.04;72.15;100182.81;5095553;28;8844;-58
2023/03/05 02:55:24;;;;;;;;;1.00;0.00;;;;;4.02;72.16;100180.25;5095914;28;8841;-61
2023/03/05 02:57:52;;;;;;;;;3.00;3.00;;;;;4.00;71.92;100168.94;5094171;28;8850;-59
2023/03/05 03:00:20;;;;;;;;;2.20;2.20;;;;;4.01;72.35;100172.41;5095285;28;8862;-59
2023/03/05 03:02:47;;;;;;;;;1.80;1.40;;;;;4.00;72.04;100168.06;5095114;28;8821;-60
2023/03/05 03:05:15;;;;;;;;;0.60;0.00;;;;;4.00;71.95;100162.78;5095827;28;8852;-59
2023/03/05 03:07:43;;;;;;;;;3.40;3.00;;;;;3.98;72.35;100162.88;5095646;28;8837;-59
2023/03/05 03:10:11;;;;;;;;;3.60;3.60;;;;;3.97;71.93;100162.97;5095948;28;8826;-59
2023/03/05 03:12:39;;;;;;;;;1.00;0.00;;;;;3.97;72.60;100152.44;5095431;28;8845;-61
2023/03/05 03:15:06;;;;;;;;;1.00;1.00;;;;;3.96;71.81;100156.81;5095548;28;8818;-59
2023/03/05 03:17:34;;;;;;;;;2.20;1.40;;;;;3.96;72.20;100148.09;5095781;28;8825;-58
2023/03/05 03:20:02;;;;;;;;;0.00;0.00;;;;;3.97;72.21;100152.44;5095987;28;8826;-60
2023/03/05 03:22:30;;;;;;;;;0.80;0.80;;;;;3.96;72.53;100158.63;5095780;28;8863;-60
2023/03/05 03:24:58;;;;;;;;;1.20;0.60;;;;;3.95;72.38;100143.75;5095948;28;8838;-61
2023/03/05 03:27:25;;;;;;;;;0.60;0.60;;;;;3.95;72.54;100141.13;5095367;28;8825;-61
2023/03/05 03:29:53;;;;;;;;;1.00;0.20;;;;;3.95;72.66;100144.59;5095851;28;8837;-59
2023/03/05 03:32:20;;;;;;;;;2.20;2.20;;;;;3.95;72.04;100134.06;5095349;28;8832;-58
2023/03/05 03:34:48;;;;;;;;;3.00;3.00;;;;;3.95;72.35;100128.78;5094365;28;8845;-59
2023/03/05 03:37:16;;;;;;;;;3.00;3.00;;;;;3.95;72.18;100122.69;5094949;28;8829;-59
2023/03/05 03:39:44;;;;;;;;;2.20;0.60;;;;;3.94;72.74;100121.81;5095774;28;8830;-61
2023/03/05 03:42:12;;;;;;;;;3.80;3.00;;;;;3.96;72.71;100121.75;5095413;28;8829;-59
2023/03/05 03:44:40;;;;;;;;;1.40;1.40;;;;;3.95;72.18;100126.16;5096877;28;8856;-59
2023/03/05 03:47:07;;;;;;;;;0.80;0.40;;;;;3.94;72.54;100116.53;5099378;28;8841;-60
2023/03/05 03:49:35;;;;;;;;;1.00;1.00;;;;;3.96;72.40;100119.13;5099464;28;8825;-59
2023/03/05 03:52:03;;;;;;;;;1.00;1.00;;;;;3.95;72.18;100117.41;5099397;28;8839;-60
2023/03/05 03:54:31;;;;;;;;;1.40;1.00;;;;;3.94;72.74;100106.00;5099632;28;9522;-59
2023/03/05 03:56:58;;;;;;;;;1.00;0.20;;;;;3.93;72.44;100109.59;5099651;28;9511;-58
2023/03/05 03:59:26;;;;;;;;;1.40;1.40;;;;;3.93;72.89;100100.81;5098246;28;8862;-61
2023/03/05 04:01:54;;;;;;;;;3.00;2.60;;;;;3.93;72.91;100096.41;5098920;28;8841;-58
2023/03/05 04:04:21;;;;;;;;;1.00;1.00;;;;;3.92;72.96;100093.84;5098849;28;8821;-59
2023/03/05 04:06:49;;;;;;;;;0.40;0.40;;;;;3.93;72.33;100098.19;5099246;28;8833;-58
2023/03/05 04:09:17;;;;;;;;;0.00;0.00;;;;;3.92;72.46;100097.34;5098954;28;8830;-58
2023/03/05 04:11:45;;;;;;;;;1.80;1.80;;;;;3.91;72.46;100092.16;5099237;28;8903;-59
2023/03/05 04:14:12;;;;;;;;;2.60;2.60;;;;;3.92;72.30;100093.84;5099069;28;8810;-59
2023/03/05 04:16:40;;;;;;;;;1.00;1.00;;;;;3.91;72.37;100089.50;5098966;28;8826;-58
2023/03/05 04:19:08;;;;;;;;;0.80;0.60;;;;;3.91;72.76;100089.50;5099462;28;8857;-59
2023/03/05 04:21:35;;;;;;;;;3.00;1.80;;;;;3.90;72.56;100086.00;5098980;28;8934;-58
2023/03/05 04:24:04;;;;;;;;;3.00;3.00;;;;;3.89;72.79;100084.31;5098675;28;8810;-61
2023/03/05 04:26:32;;;;;;;;;3.00;2.60;;;;;3.89;72.99;100081.69;5098821;28;8826;-60
2023/03/05 04:28:59;;;;;;;;;2.60;1.80;;;;;3.90;73.04;100082.53;5082444;28;8841;-59
2023/03/05 04:31:27;;;;;;;;;4.40;4.40;;;;;3.91;72.97;100078.97;5078762;28;8843;-58
2023/03/05 04:33:55;;;;;;;;;4.00;3.20;;;;;3.90;72.81;100075.47;5078157;28;8951;-57
2023/03/05 04:36:23;;;;;;;;;5.60;5.40;;;;;3.91;72.55;100073.72;5078053;28;8816;-59
2023/03/05 04:38:50;;;;;;;;;3.20;3.00;;;;;3.92;72.61;100076.28;5078073;28;8929;-58
2023/03/05 04:41:18;;;;;;;;;4.40;4.00;;;;;3.92;73.27;100070.13;5078369;28;8820;-59
2023/03/05 04:43:46;;;;;;;;;2.60;2.60;;;;;3.91;72.65;100068.44;5078502;28;8870;-61
2023/03/05 04:46:14;;;;;;;;;3.00;3.00;;;;;3.89;72.86;100059.78;5077447;28;8879;-60
2023/03/05 04:48:41;;;;;;;;;4.60;4.00;;;;;3.88;72.47;100066.81;5077633;28;8824;-58
2023/03/05 04:51:09;;;;;;;;;3.00;3.00;;;;;3.87;72.84;100066.88;5077684;28;8877;-58
2023/03/05 04:53:37;;;;;;;;;4.40;4.00;;;;;3.88;72.80;100065.97;5077904;28;8820;-61
2023/03/05 04:56:05;;;;;;;;;4.00;3.20;;;;;3.88;72.61;100061.53;5077344;28;8828;-61
2023/03/05 04:58:32;;;;;;;;;5.20;5.20;;;;;3.88;72.68;100058.91;5089568;28;8841;-58
2023/03/05 05:01:00;;;;;;;;;6.40;6.00;;;;;3.89;73.11;100051.88;5098182;28;8849;-60
2023/03/05 05:03:28;;;;;;;;;4.20;3.60;;;;;3.89;72.87;100054.50;5098074;28;8828;-59
2023/03/05 05:05:55;;;;;;;;;4.80;3.80;;;;;3.89;72.94;100050.06;5098225;28;8841;-61
2023/03/05 05:08:24;;;;;;;;;1.00;1.00;;;;;3.88;72.74;100051.00;5098156;28;8832;-61
2023/03/05 05:10:51;;;;;;;;;4.00;3.00;;;;;3.86;73.31;100052.00;5097910;28;8844;-61
2023/03/05 05:13:19;;;;;;;;;6.40;4.40;;;;;3.84;73.25;100046.84;5097978;28;8869;-60
2023/03/05 05:15:47;;;;;;;;;6.20;5.20;;;;;3.84;73.28;100053.88;5097415;28;8910;-61
2023/03/05 05:18:14;;;;;;;;;6.60;4.40;;;;;3.84;72.76;100048.59;5097518;28;8837;-60
2023/03/05 05:20:42;;;;;;;;;6.80;6.20;;;;;3.87;73.25;100045.81;5097405;28;9582;-60
2023/03/05 05:23:10;;;;;;;;;2.60;2.00;;;;;3.88;72.86;100044.91;5096814;28;8829;-61
2023/03/05 05:25:37;;;;;;;;;4.40;3.80;;;;;3.87;72.82;100035.28;5097185;28;8856;-59
2023/03/05 05:28:05;;;;;;;;;3.00;3.00;;;;;3.87;72.79;100040.53;5096772;28;8842;-61
2023/03/05 05:30:33;;;;;;;;;3.00;1.40;;;;;3.88;72.83;100037.00;5097187;28;8834;-61
2023/03/05 05:33:01;;;;;;;;;0.60;0.20;;;;;3.87;72.90;100045.81;5097261;28;9500;-61
2023/03/05 05:35:28;;;;;;;;;3.80;3.00;;;;;3.87;73.09;100040.53;5097418;28;8824;-60
2023/03/05 05:37:56;;;;;;;;;4.00;3.60;;;;;3.86;72.68;100037.06;5097623;28;8871;-61
2023/03/05 05:40:24;;;;;;;;;3.00;3.00;;;;;3.87;72.93;100032.63;5097518;28;8830;-60
2023/03/05 05:42:51;;;;;;;;;4.00;3.00;;;;;3.86;73.21;100037.06;5097498;28;8845;-61
2023/03/05 05:45:19;;;;;;;;;5.20;4.80;;;;;3.84;73.27;100032.81;5096315;28;8865;-61
2023/03/05 05:47:46;;;;;;;;;3.20;3.20;;;;;3.77;73.40;100030.59;5096239;28;8914;-61
2023/03/05 05:50:15;;;;;;;;;8.20;6.80;;;;;3.70;73.35;100034.44;5096477;28;8833;-61
2023/03/05 05:52:43;;;;;;;;;3.00;3.00;;;;;3.62;73.88;100040.09;5096401;28;8860;-61
2023/03/05 05:55:11;;;;;;;;;5.60;4.40;;;;;3.57;73.40;100033.34;5096179;28;8838;-60
2023/03/05 05:57:39;;;;;;;;;3.00;3.00;;;;;3.53;73.65;100037.06;5096317;28;8835;-60
2023/03/05 06:00:06;;;;;;;;;3.00;3.00;;;;;3.49;73.54;100027.63;5097155;28;8830;-61
2023/03/05 06:02:34;;;;;;;;;3.20;3.20;;;;;3.46;73.97;100028.63;5096187;28;8818;-61
2023/03/05 06:05:01;;;;;;;;;4.00;4.00;;;;;3.46;73.52;100023.34;5096669;28;8838;-58
2023/03/05 06:07:30;;;;;;;;;3.20;3.20;;;;;3.43;73.64;100018.25;5096336;28;8854;-59
2023/03/05 06:09:58;;;;;;;;;3.60;2.80;;;;;3.42;74.17;100016.53;5096809;28;8833;-61
2023/03/05 06:12:25;;;;;;;;;6.00;6.00;;;;;3.41;74.43;100009.56;5096785;28;8879;-61
2023/03/05 06:14:54;;;;;;;;;6.60;6.60;;;;;3.41;73.79;100012.19;5076763;28;8816;-61
2023/03/05 06:17:22;;;;;;;;;5.60;4.40;;;;;3.40;73.79;100005.22;5076441;28;8832;-61
2023/03/05 06:19:57;;;;;;;;;5.80;5.00;;;;;3.42;74.28;100010.44;5075760;28;8824;-61
2023/03/05 06:22:25;;;;;;;;;8.20;4.80;;;;;3.42;73.62;100011.25;5075830;28;8832;-61
2023/03/05 06:24:52;;;;;;;;;3.60;1.40;;;;;3.43;73.80;100023.53;5076043;28;8843;-61
2023/03/05 06:27:20;;;;;;;;;6.20;6.00;;;;;3.43;74.01;100023.53;5075833;28;8858;-60
2023/03/05 06:29:48;;;;;;;;;6.20;5.60;;;;;3.46;73.88;100033.88;5075587;28;8836;-61
2023/03/05 06:32:15;;;;;;;;;6.40;6.40;;;;;3.49;74.18;100031.09;5075621;28;8825;-61
2023/03/05 06:34:43;;;;;;;;;6.80;6.80;;;;;3.52;73.70;100030.09;5075554;28;8875;-61
2023/03/05 06:37:11;;;;;;;;;9.60;7.00;;;;;3.57;74.18;100033.34;5076002;28;8847;-61
2023/03/05 06:39:39;;;;;;;;;4.40;4.40;;;;;3.57;73.53;100031.56;5075746;28;9479;-61
2023/03/05 06:42:07;;;;;;;;;5.60;3.80;;;;;3.59;73.75;100024.44;5075605;28;8832;-61
2023/03/05 06:44:34;;;;;;;;;10.00;9.20;;;;;3.62;73.73;100024.28;5091339;28;8826;-59
2023/03/05 06:47:02;;;;;;;;;9.60;9.40;;;;;3.64;73.43;100027.69;5095764;28;8822;-58
2023/03/05 06:49:30;;;;;;;;;7.40;6.60;;;;;3.69;73.54;100027.50;5096168;28;8818;-61
2023/03/05 06:51:57;;;;;;;;;6.20;6.00;;;;;3.71;73.95;100022.97;5096078;28;8814;-60
2023/03/05 06:54:25;;;;;;;;;8.60;7.40;;;;;3.71;73.20;100018.56;5095646;28;8834;-61
2023/03/05 06:56:53;;;;;;;;;11.20;7.80;;;;;3.75;73.48;100023.59;5095528;28;8893;-61
2023/03/05 06:59:21;;;;;;;;;6.60;5.60;;;;;3.80;73.10;100024.22;5095430;28;8865;-59
2023/03/05 07:01:49;;;;;;;;;4.40;4.40;;;;;3.85;73.27;100023.97;5095074;28;8829;-60
2023/03/05 07:04:17;;;;;;;;;10.00;9.60;;;;;3.89;72.84;100022.91;5094542;28;8843;-60
2023/03/05 07:06:44;;;;;;;;;12.60;9.80;;;;;3.94;72.72;100020.84;5094652;28;8883;-58
2023/03/05 07:09:12;;;;;;;;;14.60;9.40;;;;;3.98;72.72;100015.34;5094851;28;8841;-61
2023/03/05 07:11:40;;;;;;;;;11.40;11.40;;;;;4.01;72.85;100014.34;5095110;28;8821;-61
2023/03/05 07:14:07;;;;;;;;;9.80;8.20;;;;;4.05;72.63;100018.53;5094652;28;8802;-61
2023/03/05 07:16:35;;;;;;;;;9.00;9.00;;;;;4.07;72.95;100003.50;5095294;28;8834;-61
2023/03/05 07:19:03;;;;;;;;;7.80;6.60;;;;;4.05;72.71;100008.84;5097261;28;8972;-59
2023/03/05 07:21:31;;;;;;;;;11.80;9.40;;;;;4.03;72.87;100015.13;5099227;28;9565;-60
2023/03/05 07:23:59;;;;;;;;;9.20;9.20;;;;;3.97;72.87;100015.44;5099797;28;8943;-60
2023/03/05 07:26:27;;;;;;;;;11.20;10.40;;;;;3.89;73.10;100007.09;5099112;28;8829;-60
2023/03/05 07:28:54;;;;;;;;;14.20;11.60;;;;;3.83;73.78;100012.69;5098443;28;8907;-61
2023/03/05 07:31:25;;;;;;;;;7.60;6.60;;;;;3.78;73.90;100013.84;5098449;28;8850;-60
2023/03/05 07:33:53;;;;;;;;;8.60;7.40;;;;;3.72;73.66;100012.34;5098631;28;8833;-61
2023/03/05 07:36:21;;;;;;;;;12.40;10.00;;;;;3.69;73.81;100004.63;5097675;28;8825;-61
2023/03/05 07:38:49;;;;;;;;;7.00;6.60;;;;;3.70;73.54;100008.13;5098628;28;8821;-61
2023/03/05 07:41:19;;;;;;;;;3.00;1.80;;;;;3.71;73.91;100007.19;5098780;28;8842;-60
2023/03/05 07:43:47;;;;;;;;;11.40;9.80;;;;;3.72;73.96;99993.94;5099489;28;8821;-59
2023/03/05 07:46:15;;;;;;;;;12.00;11.60;;;;;3.74;74.01;99998.19;5099530;28;8843;-60
2023/03/05 07:48:43;;;;;;;;;8.80;8.00;;;;;3.76;73.52;99992.84;5099587;28;8917;-60
2023/03/05 07:51:11;;;;;;;;;8.60;6.60;;;;;3.77;73.70;99989.28;5099205;28;8869;-60
2023/03/05 07:53:38;;;;;;;;;11.60;9.80;;;;;3.81;73.90;99988.22;5099268;28;8833;-61
2023/03/05 07:56:06;;;;;;;;;9.80;9.80;;;;;3.85;73.88;99985.34;5098606;28;8829;-61
2023/03/05 07:58:34;;;;;;;;;16.80;12.80;;;;;3.89;73.85;99986.88;5098643;28;8842;-60
2023/03/05 08:01:02;;;;;;;;;13.80;13.20;;;;;3.93;73.42;99985.78;5098765;28;8830;-60
2023/03/05 08:03:30;;;;;;;;;13.80;10.00;;;;;3.92;73.83;99985.84;5093855;28;8818;-61
2023/03/05 08:05:57;;;;;;;;;16.40;15.60;;;;;3.93;73.96;99982.28;5078269;28;8824;-61
2023/03/05 08:08:25;;;;;;;;;11.60;9.00;;;;;3.97;73.25;99981.22;5078167;28;8832;-57
2023/03/05 08:10:53;;;;;;;;;12.60;12.20;;;;;4.03;73.12;99979.09;5078268;28;8866;-58
2023/03/05 08:13:21;;;;;;;;;12.20;9.20;;;;;4.07;73.18;99979.78;5078546;28;8890;-59
2023/03/05 08:15:48;;;;;;;;;11.60;10.00;;;;;4.12;73.44;99977.78;5078422;28;9501;-60
2023/03/05 08:18:18;;;;;;;;;7.00;6.80;;;;;4.18;73.37;99977.44;5078496;28;8950;-61
2023/03/05 08:20:46;;;;;;;;;14.60;14.60;;;;;4.23;72.75;99971.00;5078293;28;8858;-61
2023/03/05 08:23:13;;;;;;;;;15.00;11.60;;;;;4.23;73.00;99964.84;5077594;28;8840;-60
2023/03/05 08:25:42;;;;;;;;;12.20;9.40;;;;;4.22;73.42;99964.03;5077452;28;8920;-61
2023/03/05 08:28:09;;;;;;;;;16.80;16.00;;;;;4.21;73.36;99966.72;5086891;28;8853;-61
2023/03/05 08:30:37;;;;;;;;;12.40;11.80;;;;;4.21;72.84;99969.38;5096837;28;8860;-61
2023/03/05 08:33:05;;;;;;;;;16.40;15.00;;;;;4.23;73.06;99960.47;5097146;28;8834;-60
2023/03/05 08:35:33;;;;;;;;;12.40;9.60;;;;;4.27;72.97;99955.88;5095367;28;8842;-60
2023/03/05 08:38:01;;;;;;;;;16.60;12.60;;;;;4.33;73.31;99960.81;5096048;28;9004;-59
2023/03/05 08:40:29;;;;;;;;;12.20;7.80;;;;;4.40;72.80;99957.75;5095407;28;8834;-61
2023/03/05 08:42:57;;;;;;;;;11.80;8.20;;;;;4.52;72.73;99953.59;5096155;28;8826;-61
2023/03/05 08:45:25;;;;;;;;;6.40;6.00;;;;;4.62;72.61;99946.88;5095667;28;8837;-60
2023/03/05 08:47:53;;;;;;;;;11.80;10.40;;;;;4.71;72.71;99946.38;5096263;28;8833;-61
2023/03/05 08:50:22;;;;;;;;;15.00;13.00;;;;;4.77;71.85;99946.00;5095643;28;8844;-58
2023/03/05 08:52:50;;;;;;;;;14.20;13.20;;;;;4.80;72.16;99951.13;5097049;28;8971;-59
2023/03/05 08:55:17;;;;;;;;;7.00;5.20;;;;;4.90;72.28;99949.66;5097280;28;8842;-62
2023/03/05 08:57:45;;;;;;;;;12.80;11.20;;;;;4.96;72.09;99949.31;5094960;28;8841;-61
2023/03/05 09:00:13;;;;;;;;;9.00;8.60;;;;;5.01;71.91;99942.00;5096131;28;8814;-61
2023/03/05 09:02:42;;;;;;;;;12.40;10.80;;;;;5.03;72.35;99933.03;5096194;28;8926;-61
2023/03/05 09:05:09;;;;;;;;;12.80;12.60;;;;;4.99;72.06;99942.09;5096330;28;8826;-61
2023/03/05 09:07:38;;;;;;;;;13.00;12.20;;;;;4.94;72.48;99938.84;5095988;28;8846;-61
2023/03/05 09:10:06;;;;;;;;;12.60;10.00;;;;;4.92;72.57;99931.97;5096182;28;8987;-60
2023/03/05 09:12:34;;;;;;;;;13.00;10.00;;;;;5.02;72.50;99928.72;5097040;28;8968;-60
2023/03/05 09:15:02;;;;;;;;;16.00;15.20;;;;;5.24;71.95;99930.97;5097275;28;8857;-61
2023/03/05 09:17:30;;;;;;;;;12.80;10.00;;;;;5.43;72.15;99926.31;5097414;28;8834;-61
2023/03/05 09:19:58;;;;;;;;;15.20;13.00;;;;;5.62;71.29;99924.28;5097116;28;9626;-60
2023/03/05 09:22:25;;;;;;;;;10.80;10.60;;;;;5.62;71.53;99922.47;5096532;28;8852;-59
2023/03/05 09:24:53;;;;;;;;;10.40;9.40;;;;;5.57;71.78;99923.69;5096622;28;8921;-61
2023/03/05 09:27:21;;;;;;;;;7.80;7.00;;;;;5.57;71.40;99923.69;5097023;28;8817;-61
2023/03/05 09:29:49;;;;;;;;;11.60;9.60;;;;;5.54;71.44;99921.25;5096987;28;8853;-61
2023/03/05 09:32:17;;;;;;;;;8.20;8.20;;;;;5.49;71.97;99918.03;5095696;28;8813;-61
2023/03/05 09:34:45;;;;;;;;;13.80;11.00;;;;;5.45;71.58;99908.56;5096639;28;8833;-61
2023/03/05 09:37:13;;;;;;;;;12.00;11.60;;;;;5.39;72.00;99917.72;5095808;28;8907;-61
2023/03/05 09:39:41;;;;;;;;;10.00;8.60;;;;;5.37;72.30;99913.47;5096298;28;8910;-59
2023/03/05 09:42:08;;;;;;;;;14.00;11.40;;;;;5.35;72.18;99912.72;5095165;28;8842;-61
2023/03/05 09:44:37;;;;;;;;;12.40;11.00;;;;;5.44;72.28;99905.09;5095705;28;8829;-60
2023/03/05 09:47:05;;;;;;;;;4.80;4.00;;;;;5.55;71.92;99904.47;5095827;28;9518;-61
2023/03/05 09:49:33;;;;;;;;;14.60;13.00;;;;;5.65;71.36;99897.69;5096074;28;8849;-61
2023/03/05 09:52:01;;;;;;;;;13.40;12.60;;;;;5.67;71.71;99898.44;5095813;28;8923;-58
2023/03/05 09:54:29;;;;;;;;;15.20;12.80;;;;;5.66;71.73;99896.72;5095394;28;8822;-61
2023/03/05 09:56:57;;;;;;;;;11.60;10.80;;;;;5.63;72.30;99892.47;5096294;28;8844;-61
2023/03/05 09:59:26;;;;;;;;;9.80;7.40;;;;;5.65;71.79;99890.63;5096532;28;8846;-61
2023/03/05 10:01:54;;;;;;;;;1.40;0.60;;;;;5.63;71.86;99892.47;5095234;28;8884;-61
2023/03/05 10:04:22;;;;;;;;;7.40;7.40;;;;;5.59;72.30;99895.41;5095861;28;8963;-61
2023/03/05 10:06:50;;;;;;;;;9.60;9.00;;;;;5.54;72.49;99895.69;5094924;28;8837;-61
2023/03/05 10:09:19;;;;;;;;;6.00;6.00;;;;;5.58;72.70;99883.13;5093563;28;8842;-60
2023/03/05 10:11:47;;;;;;;;;3.60;3.60;;;;;5.63;72.43;99889.00;5093407;28;8941;-61
2023/03/05 10:14:15;;;;;;;;;7.60;7.60;;;;;5.64;72.12;99882.78;5093825;28;8902;-61
2023/03/05 10:16:44;;;;;;;;;9.00;9.00;;;;;5.63;71.71;99881.09;5094956;28;8830;-61
2023/03/05 10:19:12;;;;;;;;;6.00;6.00;;;;;5.61;72.29;99882.97;5094631;28;8826;-61
2023/03/05 10:21:40;;;;;;;;;9.00;8.20;;;;;5.56;72.22;99879.75;5095559;28;8859;-59
2023/03/05 10:24:08;;;;;;;;;9.80;9.80;;;;;5.50;72.20;99875.69;5094890;28;8848;-61
2023/03/05 10:26:36;;;;;;;;;8.20;6.80;;;;;5.46;72.75;99878.63;5095257;28;8844;-61
2023/03/05 10:29:05;;;;;;;;;10.00;9.40;;;;;5.45;72.35;99866.31;5095422;28;8841;-61
2023/03/05 10:31:33;;;;;;;;;6.00;6.00;;;;;5.43;72.87;99865.56;5095434;28;8857;-61
2023/03/05 10:34:01;;;;;;;;;7.40;4.80;;;;;5.39;72.86;99872.00;5095692;28;8829;-61
2023/03/05 10:36:30;;;;;;;;;10.00;7.00;;;;;5.38;72.36;99859.75;5095585;28;8853;-61
2023/03/05 10:38:59;;;;;;;;;15.20;12.00;;;;;5.32;72.80;99865.38;5094486;28;8840;-62
2023/03/05 10:41:28;;;;;;;;;9.40;9.40;;;;;5.20;72.77;99864.31;5075235;28;8840;-61
2023/03/05 10:43:56;;;;;;;;;9.00;9.00;;;;;5.10;73.48;99860.50;5074652;28;8863;-58
2023/03/05 10:46:24;;;;;;;;;12.40;10.00;;;;;5.02;73.46;99861.91;5074650;28;8921;-59
2023/03/05 10:48:52;;;;;;;;;16.60;14.60;;;;;4.97;73.47;99858.69;5086841;28;8899;-61
2023/03/05 10:51:20;;;;;;;;;13.20;13.20;;;;;4.90;73.88;99846.78;5093875;28;8834;-59
2023/03/05 10:53:48;;;;;;;;;15.80;12.80;;;;;4.83;73.70;99856.84;5093535;28;9000;-62
2023/03/05 10:56:16;;;;;;;;;9.60;6.60;;;;;4.82;73.69;99851.66;5094043;28;8845;-61
2023/03/05 10:58:45;;;;;;;;;6.60;3.20;;;;;4.84;73.85;99855.91;5094001;28;8849;-59
2023/03/05 11:01:14;;;;;;;;;7.20;7.20;;;;;4.92;73.46;99852.81;5094899;28;8826;-61
2023/03/05 11:03:42;;;;;;;;;9.20;6.80;;;;;5.01;73.76;99847.03;5094447;28;8891;-60
2023/03/05 11:06:10;;;;;;;;;7.80;6.40;;;;;5.09;73.47;99848.25;5095181;28;8894;-61
2023/03/05 11:08:38;;;;;;;;;3.40;3.40;;;;;5.20;73.19;99827.38;5094957;28;8838;-61
2023/03/05 11:11:06;;;;;;;;;10.80;8.60;;;;;5.34;73.04;99837.97;5094626;28;8874;-60
2023/03/05 11:13:34;;;;;;;;;6.00;6.00;;;;;5.43;72.48;99829.47;5094599;28;9566;-61
2023/03/05 11:16:02;;;;;;;;;11.60;10.60;;;;;5.49;72.56;99836.16;5094529;28;8822;-59
2023/03/05 11:18:33;;;;;;;;;8.40;8.20;;;;;5.54;72.40;99823.56;5094330;28;8837;-62
2023/03/05 11:21:01;;;;;;;;;7.80;6.80;;;;;5.52;72.76;99825.41;5094752;28;9511;-60
2023/03/05 11:23:30;;;;;;;;;6.20;6.20;;;;;5.46;72.50;99826.63;5095091;28;9644;-61
2023/03/05 11:25:59;;;;;;;;;3.00;3.00;;;;;5.38;72.69;99830.72;5094778;28;8972;-60
2023/03/05 11:28:27;;;;;;;;;5.00;4.40;;;;;5.29;73.26;99820.69;5094870;28;8857;-62
2023/03/05 11:31:00;;;;;;;;;1.80;1.00;;;;;5.24;73.40;99820.94;5095044;28;8856;-60
2023/03/05 11:33:28;;;;;;;;;5.20;3.00;;;;;5.24;73.34;99815.69;5094500;28;8841;-60
2023/03/05 11:35:56;;;;;;;;;6.00;6.00;;;;;5.25;72.51;99814.72;5094463;28;8836;-60
2023/03/05 11:38:23;;;;;;;;;3.00;3.00;;;;;5.32;72.67;99812.59;5094258;28;8902;-61
2023/03/05 11:40:52;;;;;;;;;6.20;5.20;;;;;5.43;72.34;99815.41;5093628;28;8829;-61
2023/03/05 11:43:19;;;;;;;;;7.80;7.00;;;;;5.55;72.68;99804.13;5093175;28;8837;-61